Time;durP1;ratioP1;P1;durP2;ratioP2;P2;SDS_P1;SDS_P2;PMS_P1;PMS_P2;Temp;Humidity;BMP_temperature;BMP_pressure;BME280_temperature;BME280_humidity;BME280_pressure;Samples;Min_cycle;Max_cycle;Signal;HPM_P1;HPM_P2
2024/04/11 00:00:22;;;;;;;3.47;1.80;;;;;;;;;;5471004;26;20205;-87
2024/04/11 00:02:54;;;;;;;3.93;1.80;;;;;;;;;;5478889;26;20181;-88
2024/04/11 00:08:14;;;;;;;2.67;1.73;;;;;;;;;;3469779;24;20278;-86
2024/04/11 00:13:39;;;;;;;2.17;1.60;;;;;;;;;;5424016;26;20573;-88
2024/04/11 00:16:31;;;;;;;3.47;1.80;;;;;;;;;;5462701;26;20237;-87
2024/04/11 00:19:07;;;;;;;1.80;1.70;;;;;;;;;;5462515;26;20298;-87
2024/04/11 00:21:59;;;;;;;3.77;1.83;;;;;;;;;;5432681;26;20178;-86
2024/04/11 00:25:02;;;;;;;5.87;2.20;;;;;;;;;;5401080;26;20226;-85
2024/04/11 00:27:26;;;;;;;3.07;2.10;;;;;;;;;;5419929;26;20221;-85
2024/04/11 00:29:54;;;;;;;5.40;2.83;;;;;;;;;;5401022;26;20308;-86
2024/04/11 00:32:39;;;;;;;4.27;2.30;;;;;;;;;;5461326;26;20244;-86
2024/04/11 00:35:11;;;;;;;4.13;2.33;;;;;;;;;;5407918;26;20244;-84
2024/04/11 00:37:43;;;;;;;3.53;2.07;;;;;;;;;;5404332;26;20253;-87
2024/04/11 00:40:27;;;;;;;4.33;2.50;;;;;;;;;;5409049;26;20230;-86
2024/04/11 00:46:21;;;;;;;3.60;2.10;;;;;;;;;;5400932;26;20263;-87
2024/04/11 00:49:12;;;;;;;;;;;;;;;;;;;;;
2024/04/11 00:55:36;;;;;;;5.77;2.40;;;;;;;;;;5296065;27;20241;-85
2024/04/11 01:13:44;;;;;;;4.63;2.30;;;;;;;;;;5345366;26;20260;-87
2024/04/11 01:16:32;;;;;;;3.07;2.13;;;;;;;;;;5368144;26;20239;-85
2024/04/11 01:22:30;;;;;;;5.60;2.43;;;;;;;;;;5367964;26;20226;-87
2024/04/11 01:28:09;;;;;;;5.80;2.87;;;;;;;;;;5258060;27;20274;-86
2024/04/11 01:28:24;;;;;;;5.10;2.40;;;;;;;;;;5398766;26;20194;-88
2024/04/11 01:31:06;;;;;;;;;;;;;;;;;;;;;
2024/04/11 01:33:46;;;;;;;7.07;3.97;;;;;;;;;;5257179;27;20286;-86
2024/04/11 01:36:38;;;;;;;17.90;11.93;;;;;;;;;;5393506;26;20236;-87
2024/04/11 01:39:31;;;;;;;5.00;3.90;;;;;;;;;;5372725;26;20246;-87
2024/04/11 01:42:18;;;;;;;6.50;3.60;;;;;;;;;;5394947;26;20219;-85
2024/04/11 01:45:10;;;;;;;10.50;4.03;;;;;;;;;;5395698;26;20239;-86
2024/04/11 01:47:42;;;;;;;6.37;3.20;;;;;;;;;;5393732;26;20233;-85
2024/04/11 01:50:20;;;;;;;5.37;3.03;;;;;;;;;;5394230;26;20219;-86
2024/04/11 01:53:02;;;;;;;5.57;3.23;;;;;;;;;;5394646;26;20264;-87
2024/04/11 01:55:41;;;;;;;5.40;3.23;;;;;;;;;;5363434;26;20286;-87
2024/04/11 01:58:21;;;;;;;5.47;2.83;;;;;;;;;;5364668;26;20308;-86
2024/04/11 02:01:12;;;;;;;4.10;2.97;;;;;;;;;;5423054;26;20226;-87
2024/04/11 02:04:01;;;;;;;9.40;3.00;;;;;;;;;;5393918;26;20218;-86
2024/04/11 02:06:46;;;;;;;5.83;2.70;;;;;;;;;;5421873;26;20232;-87
2024/04/11 02:09:31;;;;;;;5.03;2.90;;;;;;;;;;5425460;26;20245;-86
2024/04/11 02:12:03;;;;;;;8.53;2.93;;;;;;;;;;5457564;26;20283;-87
2024/04/11 02:14:35;;;;;;;4.07;2.40;;;;;;;;;;5458344;26;20225;-85
2024/04/11 02:17:19;;;;;;;3.57;2.50;;;;;;;;;;5399306;26;20325;-88
2024/04/11 02:19:45;;;;;;;6.90;3.00;;;;;;;;;;5398285;26;20216;-86
2024/04/11 02:22:23;;;;;;;4.73;2.83;;;;;;;;;;5398859;26;20254;-87
2024/04/11 02:24:53;;;;;;;6.03;2.90;;;;;;;;;;5460899;26;20311;-85
2024/04/11 02:27:26;;;;;;;3.33;2.63;;;;;;;;;;5402784;26;20225;-87
2024/04/11 02:29:52;;;;;;;5.50;2.47;;;;;;;;;;5466828;26;20214;-86
2024/04/11 02:32:30;;;;;;;3.97;2.70;;;;;;;;;;5405807;26;20238;-87
2024/04/11 02:37:54;;;;;;;3.20;2.80;;;2.50;99.90;;;;;;5352088;26;20347;-85
2024/04/11 02:40:20;;;;;;;5.30;3.10;;;2.50;99.90;;;;;;5354199;26;20317;-85
2024/04/11 02:42:49;;;;;;;7.37;3.00;;;2.50;99.90;;;;;;5354018;26;20296;-85
2024/04/11 02:45:15;;;;;;;5.10;2.90;;;2.50;99.90;;;;;;5354851;26;20700;-86
2024/04/11 02:47:46;;;;;;;4.50;2.63;;;2.60;99.90;;;;;;5324277;26;20231;-84
2024/04/11 02:50:15;;;;;;;6.33;2.90;;;2.50;99.90;;;;;;5353880;26;20235;-84
2024/04/11 02:52:44;;;;;;;4.03;2.80;;;2.50;99.90;;;;;;5354301;26;20231;-85
2024/04/11 02:55:10;;;;;;;6.47;3.20;;;3.80;99.90;;;;;;5326401;26;20216;-84
2024/04/11 02:57:39;;;;;;;4.93;2.90;;;2.50;99.90;;;;;;5357773;26;20223;-82
2024/04/11 03:00:06;;;;;;;4.07;2.50;;;2.40;99.90;;;;;;5356388;26;20231;-84
2024/04/11 03:02:35;;;;;;;4.50;2.50;;;2.30;99.90;;;;;;5354505;26;20323;-85
2024/04/11 03:05:05;;;;;;;5.20;2.80;;;2.30;99.90;;;;;;5324594;26;20253;-85
2024/04/11 03:07:34;;;;;;;3.57;3.00;;;2.30;99.90;;;;;;5356013;26;20208;-85
2024/04/11 03:10:01;;;;;;;7.53;3.00;;;2.20;99.90;;;;;;5370518;26;20319;-83
2024/04/11 03:12:29;;;;;;;6.00;3.07;;;2.20;99.90;;;;;;5370386;26;20255;-86
2024/04/11 03:14:55;;;;;;;4.73;3.10;;;2.20;99.90;;;;;;5340958;26;20243;-86
2024/04/11 03:17:24;;;;;;;4.10;3.00;;;2.20;99.90;;;;;;5361242;26;20371;-83
2024/04/11 03:19:50;;;;;;;4.47;2.90;;;2.30;99.90;;;;;;5330567;26;20228;-83
2024/04/11 03:22:21;;;;;;;4.83;2.80;;;2.20;99.90;;;;;;5328187;26;20262;-83
2024/04/11 03:24:47;;;;;;;4.67;3.20;;;2.20;99.90;;;;;;5327021;26;20249;-84
2024/04/11 03:27:16;;;;;;;6.03;3.00;;;2.20;99.90;;;;;;5355848;26;20964;-85
2024/04/11 03:29:43;;;;;;;5.27;2.87;;;2.30;99.90;;;;;;5361154;26;20296;-85
2024/04/11 03:32:14;;;;;;;8.37;3.60;;;2.30;99.90;;;;;;5358014;26;20270;-85
2024/04/11 03:34:40;;;;;;;4.97;3.10;;;2.30;99.90;;;;;;5357598;26;20262;-84
2024/04/11 03:37:10;;;;;;;3.73;2.90;;;2.20;99.90;;;;;;5355924;26;20236;-86
2024/04/11 03:39:38;;;;;;;7.93;3.30;;;2.10;99.90;;;;;;5355515;26;20224;-83
2024/04/11 03:42:08;;;;;;;7.73;3.53;;;2.10;99.90;;;;;;5354826;26;20220;-84
2024/04/11 03:44:39;;;;;;;5.13;3.43;;;2.10;99.90;;;;;;5352960;26;20235;-84
2024/04/11 03:47:06;;;;;;;3.73;2.80;;;2.10;99.90;;;;;;5353148;26;20579;-83
2024/04/11 03:49:34;;;;;;;7.57;3.40;;;2.10;99.90;;;;;;5353484;26;20219;-83
2024/04/11 03:52:05;;;;;;;5.13;3.00;;;2.00;99.90;;;;;;5353928;26;20257;-84
2024/04/11 03:54:33;;;;;;;6.00;3.07;;;1.90;99.90;;;;;;5353526;26;20651;-83
2024/04/11 03:57:04;;;;;;;4.47;2.90;;;1.90;99.90;;;;;;5354175;26;20247;-84
2024/04/11 03:59:32;;;;;;;7.43;3.43;;;1.80;99.90;;;;;;5356578;26;20176;-84
2024/04/11 04:01:58;;;;;;;7.93;3.07;;;1.90;99.90;;;;;;5356796;26;20223;-83
2024/04/11 04:04:28;;;;;;;7.20;3.40;;;;;;;;;;5356464;26;20223;-83
2024/04/11 04:06:54;;;;;;;5.57;3.00;;;1.80;99.90;;;;;;5356323;26;20352;-83
2024/04/11 04:09:23;;;;;;;5.13;3.20;;;1.80;99.90;;;;;;5355941;26;20227;-85
2024/04/11 04:11:50;;;;;;;6.33;2.80;;;2.00;99.90;;;;;;5357019;26;20317;-86
2024/04/11 04:14:21;;;;;;;4.90;2.97;;;2.00;99.90;;;;;;5356268;26;20310;-83
2024/04/11 04:16:48;;;;;;;4.63;2.70;;;2.00;99.90;;;;;;5356454;26;20220;-85
2024/04/11 04:19:18;;;;;;;4.73;2.80;;;1.90;99.90;;;;;;5356717;26;20258;-82
2024/04/11 04:21:44;;;;;;;3.80;2.40;;;1.90;99.90;;;;;;5361278;26;20245;-84
2024/04/11 04:24:12;;;;;;;6.63;2.73;;;1.80;99.90;;;;;;5364719;26;20215;-83
2024/04/11 04:26:40;;;;;;;5.37;3.10;;;1.80;99.90;;;;;;5339934;26;20246;-82
2024/04/11 04:29:09;;;;;;;4.50;2.73;;;1.80;99.90;;;;;;5359962;26;20255;-85
2024/04/11 04:31:38;;;;;;;6.80;4.17;;;1.80;99.90;;;;;;5356698;26;20333;-84
2024/04/11 04:34:09;;;;;;;6.57;3.20;;;1.80;99.90;;;;;;5353919;26;20224;-83
2024/04/11 04:36:40;;;;;;;8.10;3.10;;;;;;;;;;5325666;26;20292;-84
2024/04/11 04:39:13;;;;;;;6.73;3.37;;;1.60;99.90;;;;;;5357653;26;20332;-83
2024/04/11 04:41:39;;;;;;;6.70;3.00;;;1.60;99.90;;;;;;5358074;26;20225;-84
2024/04/11 04:44:08;;;;;;;6.17;3.13;;;1.60;99.90;;;;;;5360535;26;20715;-87
2024/04/11 04:46:39;;;;;;;6.30;3.30;;;1.60;99.90;;;;;;5355419;26;20236;-86
2024/04/11 04:49:10;;;;;;;6.03;2.97;;;1.60;99.90;;;;;;5354388;26;20587;-85
2024/04/11 04:51:36;;;;;;;4.87;3.40;;;1.70;99.90;;;;;;5353891;26;20223;-86
2024/04/11 04:54:05;;;;;;;6.03;3.30;;;1.60;99.90;;;;;;5330906;26;20254;-84
2024/04/11 04:56:32;;;;;;;6.40;2.97;;;1.80;99.90;;;;;;5356739;26;20285;-86
2024/04/11 04:59:02;;;;;;;6.73;3.30;;;1.80;99.90;;;;;;5351725;26;20231;-87
2024/04/11 05:01:30;;;;;;;6.93;3.37;;;1.80;99.90;;;;;;5353885;26;20239;-85
2024/04/11 05:04:02;;;;;;;6.47;3.63;;;1.90;99.90;;;;;;5356213;26;20258;-86
2024/04/11 05:06:37;;;;;;;8.60;3.37;;;;;;;;;;5354379;26;20390;-84
2024/04/11 05:22:49;;;;;;;;;;;;;;;;;;;;;
2024/04/11 05:26:36;;;;;;;6.53;4.30;;;;;;;;;;5256523;26;20287;-83
2024/04/11 05:28:44;;;;;;;6.60;4.10;;;;;;;;;;5294169;26;20259;-84
2024/04/11 05:38:08;;;;;;;11.33;5.20;;;;;;;;;;5287802;26;20299;-79
2024/04/11 05:40:34;;;;;;;9.30;5.07;;;;;;;;;;5350903;26;20355;-82
2024/04/11 05:43:07;;;;;;;8.80;5.20;;;;;;;;;;5349645;26;20231;-83
2024/04/11 05:45:36;;;;;;;8.80;5.27;;;;;;;;;;5349974;26;20228;-82
2024/04/11 05:48:08;;;;;;;11.43;6.03;;;;;;;;;;5351784;26;20223;-83
2024/04/11 05:50:38;;;;;;;10.10;5.57;;;;;;;;;;5350932;26;20239;-82
2024/04/11 05:53:23;;;;;;;11.43;5.60;;;;;;;;;;5353012;26;20305;-84
2024/04/11 05:56:31;;;;;;;8.37;5.40;;;3.60;99.90;;;;;;5350246;26;20739;-83
2024/04/11 05:59:01;;;;;;;9.70;5.20;;;;;;;;;;5307611;26;20223;-82
2024/04/11 06:05:20;;;;;;;6.30;4.90;;;;;;;;;;5346508;26;20231;-84
2024/04/11 06:08:19;;;;;;;7.40;4.50;;;;;;;;;;5350639;26;20263;-82
2024/04/11 06:18:35;;;;;;;8.77;4.33;;;5.30;99.90;;;;;;5344439;26;20271;-80
2024/04/11 06:21:47;;;;;;;7.20;3.93;;;5.50;99.90;;;;;;5299824;26;20342;-85
2024/04/11 06:33:21;;;;;;;10.60;3.63;;;;;;;;;;4892762;24;20242;-84
2024/04/11 06:35:51;;;;;;;4.53;3.40;;;;;;;;;;5371794;26;20234;-83
2024/04/11 06:51:55;;;;;;;6.10;3.27;;;7.60;99.90;;;;;;5335853;26;20226;-83
2024/04/11 06:54:30;;;;;;;5.83;3.23;;;;;;;;;;5355967;26;20227;-81
2024/04/11 06:57:03;;;;;;;4.50;3.07;;;;;;;;;;5357474;26;20264;-83
2024/04/11 07:01:04;;;;;;;5.27;3.20;;;;;;;;;;5358789;26;20223;-83
2024/04/11 07:06:22;;;;;;;7.17;2.83;;;;;;;;;;5245469;27;20271;-84
2024/04/11 07:09:11;;;;;;;6.33;3.20;;;;;;;;;;5365005;26;20218;-83
2024/04/11 07:17:41;;;;;;;7.80;3.00;;;;;;;;;;5845484;21;20252;-84
2024/04/11 07:20:35;;;;;;;3.70;2.67;;;;;;;;;;5444236;26;20216;-84
2024/04/11 07:23:30;;;;;;;5.30;2.67;;;;;;;;;;5431090;26;20225;-86
2024/04/11 07:26:11;;;;;;;5.03;2.80;;;;;;;;;;5431109;26;20260;-84
2024/04/11 07:28:48;;;;;;;8.03;2.67;;;;;;;;;;5430128;26;20739;-84
2024/04/11 07:37:39;;;;;;;5.67;3.20;;;10.20;99.90;;;;;;5493335;21;20311;-85
2024/04/11 07:40:27;;;;;;;5.80;2.67;;;;;;;;;;5462960;26;20219;-83
2024/04/11 07:43:26;;;;;;;4.43;2.70;;;10.50;99.90;;;;;;5496602;25;20188;-82
2024/04/11 07:46:49;;;;;;;5.60;3.00;;;10.80;99.90;;;;;;5466028;26;20282;-84
2024/04/11 07:49:50;;;;;;;6.73;2.50;;;10.70;99.90;;;;;;5487084;26;20264;-83
2024/04/11 07:52:57;;;;;;;6.27;2.77;;;10.70;99.90;;;;;;5464525;26;20219;-84
2024/04/11 07:55:54;;;;;;;4.80;2.63;;;;;;;;;;5506415;25;20269;-84
2024/04/11 08:01:34;;;;;;;11.10;2.63;;;;;;;;;;5464982;26;20211;-85
2024/04/11 08:04:15;;;;;;;8.30;3.00;;;;;;;;;;5468088;26;20779;-83
2024/04/11 08:33:57;;;;;;;6.23;2.47;;;;;;;;;;5270139;26;20397;-84
2024/04/11 08:36:52;;;;;;;6.33;2.60;;;12.80;99.90;;;;;;5458486;26;20236;-81
2024/04/11 08:43:09;;;;;;;7.67;2.43;;;13.30;99.90;;;;;;5425732;26;20680;-85
2024/04/11 08:45:35;;;;;;;6.03;2.30;;;;;;;;;;5428151;26;20259;-84
2024/04/11 08:48:05;;;;;;;4.73;2.50;;;;;;;;;;5471770;26;20220;-86
2024/04/11 08:50:41;;;;;;;5.20;2.50;;;;;;;;;;5426618;26;20220;-84
2024/04/11 08:53:53;;;;;;;5.43;2.27;;;13.30;99.90;;;;;;5427478;26;20309;-84
2024/04/11 08:56:44;;;;;;;5.10;2.80;;;;;;;;;;5428812;26;20244;-84
2024/04/11 08:59:24;;;;;;;5.33;2.20;;;;;;;;;;5427227;26;20216;-84
2024/04/11 09:01:59;;;;;;;6.03;2.47;;;;;;;;;;5427400;26;20258;-84
2024/04/11 09:04:43;;;;;;;6.13;2.53;;;;;;;;;;5426875;26;20259;-84
2024/04/11 09:07:36;;;;;;;4.07;2.70;;;14.00;99.90;;;;;;5427820;26;20258;-85
2024/04/11 09:10:07;;;;;;;6.73;2.70;;;;;;;;;;5426826;26;20227;-84
2024/04/11 09:12:46;;;;;;;3.43;1.97;;;;;;;;;;5428460;26;20262;-83
2024/04/11 09:15:21;;;;;;;5.05;2.47;;;;;;;;;;5427519;26;20237;-86
2024/04/11 09:17:50;;;;;;;6.18;2.10;;;;;;;;;;5458805;26;20731;-84
2024/04/11 09:20:32;;;;;;;7.40;2.72;;;;;;;;;;5426681;26;20752;-83
2024/04/11 09:23:19;;;;;;;5.23;2.30;;;14.80;99.90;;;;;;5427557;26;20232;-85
2024/04/11 09:26:10;;;;;;;5.45;2.40;;;;;;;;;;5426655;26;20371;-86
2024/04/11 09:28:45;;;;;;;4.63;2.45;;;;;;;;;;5426857;26;20236;-85
2024/04/11 09:34:05;;;;;;;3.58;2.25;;;;;;;;;;5459714;26;20265;-85
2024/04/11 09:39:49;;;;;;;5.35;2.28;;;;;;;;;;5411673;26;20248;-86
2024/04/11 09:45:40;;;;;;;4.78;2.28;;;;;;;;;;5411665;26;20236;-84
2024/04/11 09:49:00;;;;;;;;;;;;;;;;;;;;;
2024/04/11 09:52:37;;;;;;;3.20;1.80;;;16.20;99.90;;;;;;5339132;26;20324;-85
2024/04/11 09:55:36;;;;;;;4.22;1.80;;;16.70;99.90;;;;;;5462317;26;20220;-85
2024/04/11 09:58:28;;;;;;;5.93;2.10;;;16.90;99.90;;;;;;5460055;26;20793;-86
2024/04/11 10:01:06;;;;;;;6.00;2.53;;;;;;;;;;5429489;26;20220;-84
2024/04/11 10:04:35;;;;;;;3.58;2.05;;;16.40;99.90;;;;;;5463701;26;20220;-86
2024/04/11 10:07:41;;;;;;;6.18;2.08;;;16.70;99.90;;;;;;5431119;26;20236;-85
2024/04/11 10:10:30;;;;;;;4.28;1.70;;;;;;;;;;5313228;26;20230;-83
2024/04/11 10:25:32;;;;;;;5.97;2.30;;;17.10;97.70;;;;;;5526500;25;1879165;-74
2024/04/11 10:27:59;;;;;;;5.60;1.90;;;17.20;97.50;;;;;;5547028;25;20182;-76
2024/04/11 10:30:29;;;;;;;6.07;2.25;;;17.20;95.80;;;;;;5547518;25;20218;-74
2024/04/11 10:32:57;;;;;;;3.20;2.08;;;17.20;95.00;;;;;;5523301;25;20313;-73
2024/04/11 10:35:28;;;;;;;5.38;2.40;;;17.00;95.10;;;;;;5509362;26;20628;-72
2024/04/11 10:37:55;;;;;;;4.07;1.85;;;17.20;95.20;;;;;;5475518;26;20718;-75
2024/04/11 10:40:26;;;;;;;4.00;2.10;;;16.80;95.40;;;;;;5509579;26;20222;-74
2024/04/11 10:45:39;;;;;;;3.55;1.90;;;17.50;93.00;;;;;;5482570;26;20268;-77
2024/04/11 10:48:09;;;;;;;4.63;1.83;;;17.50;93.60;;;;;;5510328;26;20219;-77
2024/04/11 10:50:41;;;;;;;4.30;1.80;;;17.10;92.20;;;;;;5510713;26;20226;-76
2024/04/11 10:53:07;;;;;;;3.15;1.40;;;17.40;90.20;;;;;;5513210;26;20273;-77
2024/04/11 10:55:43;;;;;;;3.08;1.42;;;17.60;86.20;;;;;;5511457;26;20222;-77
2024/04/11 10:58:13;;;;;;;3.85;1.30;;;17.80;81.50;;;;;;5511012;26;20215;-78
2024/04/11 11:03:51;;;;;;;2.78;1.45;;;16.50;77.90;;;;;;5549573;25;20681;-79
2024/04/11 11:06:24;;;;;;;2.97;1.38;;;18.00;75.90;;;;;;5548524;25;20306;-78
2024/04/11 11:08:58;;;;;;;3.53;1.48;;;18.10;78.50;;;;;;5549052;25;20178;-78
2024/04/11 11:11:26;;;;;;;3.05;1.50;;;17.80;76.70;;;;;;5548873;25;20174;-78
2024/04/11 11:13:56;;;;;;;5.38;1.42;;;17.80;76.90;;;;;;5548957;25;20256;-77
2024/04/11 11:16:26;;;;;;;4.65;1.42;;;17.80;76.00;;;;;;5551340;25;20608;-77
2024/04/11 11:19:00;;;;;;;2.92;1.38;;;18.00;77.80;;;;;;5551036;25;20526;-78
2024/04/11 11:21:32;;;;;;;3.63;1.50;;;17.50;74.40;;;;;;5550206;25;20198;-78
2024/04/11 11:24:06;;;;;;;2.35;1.35;;;21.50;80.60;;;;;;5549439;25;20269;-78
2024/04/11 11:26:35;;;;;;;2.55;1.40;;;17.50;79.30;;;;;;5546511;25;20708;-79
2024/04/11 11:29:06;;;;;;;3.22;1.38;;;17.60;80.20;;;;;;5547662;25;20692;-79
2024/04/11 11:31:36;;;;;;;4.43;1.42;;;18.00;75.50;;;;;;5549103;25;20222;-77
2024/04/11 11:34:09;;;;;;;3.92;1.50;;;18.00;75.40;;;;;;5547955;25;20662;-77
2024/04/11 11:36:37;;;;;;;2.75;1.30;;;18.10;72.70;;;;;;5545038;25;20274;-75
2024/04/11 11:39:17;;;;;;;3.28;1.48;;;18.10;72.30;;;;;;5546891;25;20248;-78
2024/04/11 11:41:47;;;;;;;6.38;1.55;;;18.10;72.10;;;;;;5546638;25;20577;-77
2024/04/11 11:44:17;;;;;;;2.50;1.30;;;18.20;75.20;;;;;;5546874;25;20801;-77
2024/04/11 11:46:44;;;;;;;3.75;1.55;;;18.60;74.30;;;;;;5544352;25;20233;-78
2024/04/11 11:49:17;;;;;;;2.97;1.38;;;18.50;70.20;;;;;;5544671;25;20260;-77
2024/04/11 11:51:45;;;;;;;5.30;1.80;;;18.20;68.80;;;;;;5547156;25;20783;-77
2024/04/11 11:54:15;;;;;;;3.15;1.50;;;18.20;71.80;;;;;;5548616;25;20209;-76
2024/04/11 11:56:42;;;;;;;4.13;1.40;;;18.00;68.50;;;;;;5545756;25;20256;-77
2024/04/11 11:59:10;;;;;;;4.65;1.52;;;17.80;69.90;;;;;;5547814;25;20321;-77
2024/04/11 12:01:41;;;;;;;3.97;1.60;;;18.30;70.90;;;;;;5545028;25;20226;-76
2024/04/11 12:04:10;;;;;;;3.05;1.60;;;18.30;71.70;;;;;;5552639;25;20290;-77
2024/04/11 12:06:44;;;;;;;3.22;1.40;;;18.50;70.10;;;;;;5563105;25;20267;-78
2024/04/11 12:09:13;;;;;;;3.33;1.60;;;18.90;70.30;;;;;;5557237;25;20193;-78
2024/04/11 12:11:49;;;;;;;2.90;1.50;;;18.70;67.80;;;;;;5550396;25;20234;-77
2024/04/11 12:14:24;;;;;;;4.68;1.70;;;18.80;68.70;;;;;;5540837;25;20257;-77
2024/04/11 12:16:56;;;;;;;2.50;1.50;;;18.80;68.10;;;;;;5536914;26;20672;-77
2024/04/11 12:19:28;;;;;;;3.63;1.50;;;18.70;67.50;;;;;;5535187;26;20226;-77
2024/04/11 12:22:10;;;;;;;2.50;1.52;;;18.90;68.30;;;;;;5536164;26;20219;-77
2024/04/11 12:24:40;;;;;;;3.88;1.40;;;18.80;66.30;;;;;;5536821;26;20240;-77
2024/04/11 12:27:10;;;;;;;2.75;1.48;;;19.10;69.70;;;;;;5539276;25;20632;-78
2024/04/11 12:29:40;;;;;;;4.07;1.50;;;18.70;64.90;;;;;;5538931;25;20331;-77
2024/04/11 12:32:09;;;;;;;4.28;1.80;;;18.70;69.10;;;;;;5537364;25;20254;-76
2024/04/11 12:34:37;;;;;;;3.53;1.50;;;18.70;66.30;;;;;;5535849;25;20574;-76
2024/04/11 12:37:11;;;;;;;3.70;1.42;;;18.80;67.60;;;;;;5535519;26;20234;-76
2024/04/11 12:39:41;;;;;;;2.40;1.42;;;;;;;;;;5530774;25;20239;-77
2024/04/11 12:42:14;;;;;;;3.53;1.52;;;18.70;62.20;;;;;;5530878;25;20241;-77
2024/04/11 12:44:40;;;;;;;3.00;1.40;;;18.90;67.10;;;;;;5530697;25;20241;-77
2024/04/11 12:47:23;;;;;;;3.60;1.40;;;19.00;67.70;;;;;;5530740;25;20218;-77
2024/04/11 12:49:49;;;;;;;2.90;1.35;;;19.10;63.50;;;;;;5530630;25;20658;-76
2024/04/11 12:52:23;;;;;;;3.35;1.60;;;19.30;62.10;;;;;;5530043;25;20226;-77
2024/04/11 12:54:49;;;;;;;2.47;1.25;;;19.30;60.10;;;;;;5528184;26;20550;-76
2024/04/11 12:57:18;;;;;;;4.00;1.60;;;19.30;63.00;;;;;;5530711;25;20272;-78
2024/04/11 12:59:46;;;;;;;3.97;1.48;;;19.30;63.10;;;;;;5532028;25;20265;-77
2024/04/11 13:02:19;;;;;;;4.65;1.50;;;19.40;59.10;;;;;;5531215;25;20242;-79
2024/04/11 13:04:49;;;;;;;5.30;1.33;;;19.40;58.50;;;;;;5531052;25;20264;-77
2024/04/11 13:07:21;;;;;;;1.92;1.25;;;19.40;58.80;;;;;;5530428;25;20226;-77
2024/04/11 13:09:53;;;;;;;3.60;1.58;;;19.50;58.40;;;;;;5531088;25;20270;-78
2024/04/11 13:12:25;;;;;;;2.05;1.35;;;19.60;55.90;;;;;;5529642;25;20327;-76
2024/04/11 13:14:57;;;;;;;1.98;1.30;;;20.10;56.00;;;;;;5530208;25;20178;-78
2024/04/11 13:17:26;;;;;;;2.38;1.20;;;20.80;54.50;;;;;;5530280;25;20210;-77
2024/04/11 13:19:56;;;;;;;3.70;1.20;;;22.10;53.60;;;;;;5530588;25;20218;-77
2024/04/11 13:22:28;;;;;;;5.03;1.67;;;24.00;48.70;;;;;;5530388;25;20214;-77
2024/04/11 13:24:59;;;;;;;2.70;1.60;;;24.10;48.30;;;;;;5531022;25;20175;-77
2024/04/11 13:27:37;;;;;;;3.95;1.30;;;24.40;44.90;;;;;;5527616;26;20226;-77
2024/04/11 13:30:11;;;;;;;2.92;1.55;;;25.50;42.80;;;;;;5529443;25;20201;-76
2024/04/11 13:32:41;;;;;;;3.72;1.50;;;25.50;42.70;;;;;;5527469;25;20575;-76
2024/04/11 13:35:11;;;;;;;1.90;1.60;;;26.30;41.60;;;;;;5527065;26;20222;-77
2024/04/11 13:37:47;;;;;;;3.78;1.60;;;27.40;36.90;;;;;;5529023;25;20269;-77
2024/04/11 13:40:57;;;;;;;4.95;1.60;;;27.30;37.50;;;;;;5529288;25;20264;-76
2024/04/11 13:43:28;;;;;;;2.55;1.20;;;28.00;34.60;;;;;;5525917;26;20243;-77
2024/04/11 13:46:07;;;;;;;4.35;1.70;;;28.50;35.20;;;;;;5526745;25;20214;-78
2024/04/11 13:48:36;;;;;;;2.00;1.27;;;29.70;31.60;;;;;;5525392;25;20210;-77
2024/04/11 13:51:09;;;;;;;3.50;1.60;;;28.50;32.00;;;;;;5524506;26;20333;-77
2024/04/11 13:53:44;;;;;;;4.13;1.40;;;29.90;30.60;;;;;;5527505;25;20614;-78
2024/04/11 13:56:13;;;;;;;2.45;1.30;;;29.40;30.30;;;;;;5528506;25;20209;-77
2024/04/11 13:58:48;;;;;;;2.67;1.38;;;30.20;28.70;;;;;;5530374;25;20265;-76
2024/04/11 14:01:27;;;;;;;3.75;1.63;;;29.70;27.70;;;;;;5528108;26;20225;-76
2024/04/11 14:03:54;;;;;;;2.83;1.20;;;29.70;28.10;;;;;;5529397;25;20179;-77
2024/04/11 14:06:39;;;;;;;2.45;1.48;;;30.30;27.70;;;;;;5529689;25;20218;-76
2024/04/11 14:09:10;;;;;;;3.58;1.60;;;29.90;28.00;;;;;;5529926;25;20618;-77
2024/04/11 14:11:39;;;;;;;3.30;1.40;;;29.30;27.00;;;;;;5530165;25;20303;-79
2024/04/11 14:14:11;;;;;;;5.82;4.20;;;29.20;28.10;;;;;;5540027;25;20201;-78
2024/04/11 14:16:55;;;;;;;3.78;2.47;;;29.10;28.40;;;;;;5546324;25;20210;-77
2024/04/11 14:19:35;;;;;;;2.45;1.30;;;28.70;28.20;;;;;;5545693;25;20327;-78
2024/04/11 14:22:29;;;;;;;3.08;1.45;;;28.40;27.70;;;;;;5530152;26;20222;-78
2024/04/11 14:27:47;;;;;;;2.85;1.40;;;27.20;28.60;;;;;;5528924;25;20264;-77
2024/04/11 14:30:13;;;;;;;1.90;1.30;;;27.60;28.50;;;;;;5529344;26;20291;-75
2024/04/11 14:38:09;;;;;;;3.92;1.40;;;28.00;28.00;;;;;;5523927;26;20649;-76
2024/04/11 14:40:39;;;;;;;2.80;1.20;;;26.90;29.50;;;;;;5527633;25;20222;-75
2024/04/11 14:43:10;;;;;;;2.90;1.40;;;25.30;30.50;;;;;;5530270;25;20693;-77
2024/04/11 14:45:39;;;;;;;1.85;1.25;;;24.50;31.90;;;;;;5528155;25;20264;-76
2024/04/11 14:48:18;;;;;;;3.20;1.40;;;24.30;32.50;;;;;;5526014;26;20222;-76
2024/04/11 14:50:48;;;;;;;3.08;1.35;;;24.20;33.40;;;;;;5528116;25;20190;-76
2024/04/11 14:53:22;;;;;;;1.60;1.17;;;23.30;32.50;;;;;;5526228;26;20222;-76
2024/04/11 14:55:56;;;;;;;1.83;1.15;;;23.00;34.30;;;;;;5527658;25;20179;-77
2024/04/11 14:58:30;;;;;;;3.28;1.45;;;24.10;34.40;;;;;;5528517;25;20385;-77
2024/04/11 15:00:59;;;;;;;3.72;1.45;;;24.30;32.50;;;;;;5526490;26;20226;-76
2024/04/11 15:03:30;;;;;;;5.40;1.42;;;24.10;31.90;;;;;;5527990;25;20329;-76
2024/04/11 15:05:59;;;;;;;5.00;1.60;;;23.50;33.20;;;;;;5527997;25;20215;-76
2024/04/11 15:08:30;;;;;;;2.70;1.10;;;23.10;34.60;;;;;;5527828;25;20260;-76
2024/04/11 15:11:11;;;;;;;2.15;1.30;;;23.10;34.30;;;;;;5526026;26;20260;-78
2024/04/11 15:13:37;;;;;;;3.50;1.52;;;22.90;34.90;;;;;;5529190;25;20242;-76
2024/04/11 15:16:38;;;;;;;2.60;1.38;;;22.90;33.70;;;;;;5529335;25;20318;-76
2024/04/11 15:18:58;;;;;;;4.70;1.50;;;22.40;34.60;;;;;;5528846;26;20215;-77
2024/04/11 15:21:35;;;;;;;4.20;1.40;;;21.60;34.50;;;;;;5525932;25;20252;-78
2024/04/11 15:24:01;;;;;;;3.25;1.30;;;21.50;35.00;;;;;;5528185;25;20249;-76
2024/04/11 15:26:35;;;;;;;1.60;1.20;;;21.70;35.70;;;;;;5527216;25;20286;-76
2024/04/11 15:29:01;;;;;;;3.67;1.30;;;21.10;35.50;;;;;;5515171;21;20298;-73
2024/04/11 15:31:32;;;;;;;2.55;1.30;;;21.00;37.80;;;;;;5453128;26;20208;-72
2024/04/11 15:34:07;;;;;;;1.80;1.15;;;21.00;36.50;;;;;;5453487;26;20534;-73
2024/04/11 15:36:52;;;;;;;2.78;1.38;;;20.90;36.40;;;;;;5453506;26;20270;-73
2024/04/11 15:39:18;;;;;;;3.15;1.27;;;20.60;36.90;;;;;;5452537;26;20823;-73
2024/04/11 15:41:50;;;;;;;2.55;1.20;;;20.50;38.30;;;;;;5450696;26;20225;-72
2024/04/11 15:44:17;;;;;;;2.03;1.20;;;20.50;38.20;;;;;;5453741;26;20718;-73
2024/04/11 15:46:49;;;;;;;3.28;1.33;;;20.40;38.10;;;;;;5452927;26;20212;-73
2024/04/11 15:49:18;;;;;;;5.30;1.67;;;19.80;38.10;;;;;;5460436;26;20278;-73
2024/04/11 15:51:50;;;;;;;3.90;1.50;;;20.00;38.50;;;;;;5455703;26;20216;-73
2024/04/11 15:54:16;;;;;;;1.83;1.30;;;19.90;37.90;;;;;;5456131;26;20277;-74
2024/04/11 15:56:53;;;;;;;4.93;1.65;;;20.00;38.70;;;;;;5457561;26;20667;-73
2024/04/11 15:59:23;;;;;;;3.20;1.50;;;20.40;38.60;;;;;;5457178;26;20228;-73
2024/04/11 16:01:52;;;;;;;2.05;1.20;;;20.30;38.50;;;;;;5457956;26;20228;-73
2024/04/11 16:04:18;;;;;;;2.33;1.20;;;20.30;38.50;;;;;;5458908;26;20224;-72
2024/04/11 16:06:53;;;;;;;2.83;1.40;;;20.40;38.20;;;;;;5458424;26;20225;-73
2024/04/11 16:09:35;;;;;;;2.72;1.23;;;20.30;37.70;;;;;;5457645;26;20345;-73
2024/04/11 16:12:09;;;;;;;2.40;1.27;;;20.30;38.90;;;;;;5456338;26;20248;-74
2024/04/11 16:14:42;;;;;;;5.20;1.40;;;20.30;39.00;;;;;;5456738;26;20208;-74
2024/04/11 16:17:13;;;;;;;1.63;1.00;;;20.40;39.00;;;;;;5456839;26;20203;-72
2024/04/11 16:19:39;;;;;;;3.92;1.45;;;20.70;38.70;;;;;;5457085;26;20217;-72
2024/04/11 16:22:13;;;;;;;3.92;1.67;;;20.40;40.00;;;;;;5455153;26;20228;-73
2024/04/11 16:24:49;;;;;;;2.40;1.42;;;20.30;39.40;;;;;;5455939;26;20208;-72
2024/04/11 16:27:24;;;;;;;3.28;1.42;;;20.10;39.10;;;;;;5455967;26;20332;-74
2024/04/11 16:29:55;;;;;;;2.10;1.40;;;19.90;39.70;;;;;;5457999;26;20251;-74
2024/04/11 16:32:26;;;;;;;2.95;1.40;;;19.90;40.20;;;;;;5457024;26;20177;-73
2024/04/11 16:34:58;;;;;;;3.22;1.35;;;19.60;40.30;;;;;;5459789;26;20204;-73
2024/04/11 16:37:34;;;;;;;2.42;1.33;;;19.30;40.70;;;;;;5455353;26;20330;-73
2024/04/11 16:40:03;;;;;;;3.15;1.45;;;19.00;40.70;;;;;;5455377;26;20220;-72
2024/04/11 16:42:36;;;;;;;1.92;1.30;;;18.80;41.40;;;;;;5454776;26;20274;-73
2024/04/11 16:47:58;;;;;;;3.58;1.75;;;18.30;41.90;;;;;;5448863;26;20563;-74
2024/04/11 16:50:25;;;;;;;2.72;1.30;;;18.30;42.40;;;;;;5454890;26;20275;-73
2024/04/11 16:52:56;;;;;;;3.15;1.60;;;18.20;42.60;;;;;;5455316;26;20266;-73
2024/04/11 16:55:26;;;;;;;2.85;1.40;;;18.10;42.60;;;;;;5456283;26;20208;-73
2024/04/11 17:00:44;;;;;;;2.92;1.58;;;17.80;42.20;;;;;;5458871;26;20250;-73
2024/04/11 17:03:12;;;;;;;3.22;1.42;;;17.80;43.00;;;;;;5456445;26;20283;-73
2024/04/11 17:05:46;;;;;;;3.53;1.40;;;17.80;44.00;;;;;;5457589;26;20232;-73
2024/04/11 17:08:16;;;;;;;2.40;1.40;;;17.60;42.20;;;;;;5455611;26;20296;-72